»·PEaware :: USC243 KCEZ-KCHD

USC243 :: KCEZ-KCHD

FLIGHT INFORMATION

Flight Status: Arrived
Operator: Unknown
More flights by this operator :: More flights under this callsign
Pilot: Andy P. (22680)
Aircraft: GATES LEARJET LEARJET 35/36
(LJ35)
More flights by this aircraft type
Origin: KCEZ Cortez Mun
United States
Destination: KCHD Chandler Mun
United States
More flights between these airports :: More routes between these airports
Route: CEZ RSK ZUN HUUTY1
File this flight plan on PilotEdge
Remarks:
Altitude:
(Current/Filed)
34,000ft
Speed:
(Current/Filed)
465kts
Departed: 30-Sep-19 01:47 PM
Arrived: 30-Sep-19 02:50 PM
Distance/Time
Traveled:
288nm/1:03
Distance/Time
To Go:
Arrived

Flight Plot

Page will automatically refresh every two minutes.

Flight plan parsing failed; only flown route is shown


Map Options




Map Legend


Flown Route
Filed Route
Departure Airport
Arrival Airport
Navaid (VOR, NDB)
Fix

Horizontal Profiles

Position Reports

Time Latitude Longitude Heading Altitude Ground
Speed
30-Sep-19 13:28 37.303569 -108.630352 311 5921ft 0kts
30-Sep-19 13:29 37.303569 -108.630352 311 5921ft 0kts
30-Sep-19 13:30 37.303569 -108.630352 311 5921ft 0kts
30-Sep-19 13:31 37.303569 -108.630352 311 5921ft 0kts
30-Sep-19 13:32 37.303569 -108.630352 311 5921ft 0kts
30-Sep-19 13:33 37.303569 -108.630353 311 5921ft 0kts
30-Sep-19 13:34 37.303570 -108.630354 311 5921ft 0kts
30-Sep-19 13:35 37.303571 -108.630356 311 5921ft 0kts
30-Sep-19 13:36 37.303573 -108.630358 311 5921ft 0kts
30-Sep-19 13:37 37.303574 -108.630360 311 5921ft 0kts
30-Sep-19 13:38 37.303575 -108.630362 311 5921ft 0kts
30-Sep-19 13:39 37.303577 -108.630364 311 5921ft 0kts
30-Sep-19 13:40 37.303578 -108.630366 311 5921ft 0kts
30-Sep-19 13:41 37.303579 -108.630368 311 5921ft 0kts
30-Sep-19 13:42 37.303581 -108.630370 311 5921ft 0kts
30-Sep-19 13:43 37.305378 -108.627376 40 5921ft 20kts
30-Sep-19 13:44 37.310835 -108.621335 43 5921ft 22kts
30-Sep-19 13:45 37.310678 -108.620536 132 5921ft 0kts
30-Sep-19 13:46 37.308635 -108.621761 220 5921ft 60kts
30-Sep-19 13:47 37.276892 -108.656800 220 6958ft 199kts
30-Sep-19 13:48 37.223484 -108.704028 212 9820ft 268kts
30-Sep-19 13:49 37.157713 -108.759950 213 12733ft 292kts
30-Sep-19 13:50 37.102235 -108.711053 88 15508ft 361kts
30-Sep-19 13:51 37.162199 -108.604511 87 17975ft 377kts
30-Sep-19 13:52 37.135622 -108.488435 133 21019ft 342kts
30-Sep-19 13:53 37.065627 -108.402435 154 23285ft 370kts
30-Sep-19 13:54 36.980435 -108.325636 152 26168ft 386kts
30-Sep-19 13:55 36.894536 -108.241663 152 28734ft 398kts
30-Sep-19 13:56 36.807025 -108.156792 157 31662ft 386kts
30-Sep-19 13:57 36.712242 -108.129776 194 33964ft 337kts
30-Sep-19 13:58 36.625639 -108.175969 208 34031ft 354kts
30-Sep-19 13:59 36.533538 -108.229683 208 34033ft 376kts
30-Sep-19 14:00 36.437332 -108.287231 208 34018ft 386kts
30-Sep-19 14:01 36.340736 -108.345205 208 34019ft 387kts
30-Sep-19 14:02 36.243519 -108.403455 208 34019ft 388kts
30-Sep-19 14:03 36.146085 -108.461687 208 34022ft 388kts
30-Sep-19 14:04 36.048736 -108.519716 208 34026ft 388kts
30-Sep-19 14:05 35.951249 -108.577665 208 34030ft 389kts
30-Sep-19 14:06 35.856784 -108.633661 208 34034ft 390kts
30-Sep-19 14:07 35.758661 -108.691671 208 34040ft 391kts
30-Sep-19 14:08 35.660727 -108.749399 208 34040ft 391kts
30-Sep-19 14:09 35.562179 -108.807342 208 34050ft 391kts
30-Sep-19 14:10 35.464187 -108.864799 208 34050ft 389kts
30-Sep-19 14:11 35.366615 -108.921856 208 34050ft 389kts
30-Sep-19 14:12 35.268698 -108.978962 208 34050ft 390kts
30-Sep-19 14:13 35.170696 -109.035955 208 34050ft 390kts
30-Sep-19 14:14 35.072384 -109.092982 208 34015ft 392kts
30-Sep-19 14:15 34.974779 -109.151919 214 34009ft 390kts
30-Sep-19 14:16 34.896382 -109.243079 225 33981ft 391kts
30-Sep-19 14:17 34.821015 -109.338874 225 33981ft 391kts
30-Sep-19 14:18 34.745629 -109.434429 225 33981ft 392kts
30-Sep-19 14:19 34.682457 -109.542894 235 33982ft 396kts
30-Sep-19 14:20 34.625134 -109.657274 235 33982ft 397kts
30-Sep-19 14:21 34.567674 -109.771829 235 33940ft 397kts
30-Sep-19 14:22 34.513991 -109.878576 235 32130ft 355kts
30-Sep-19 14:23 34.461104 -109.983298 235 30460ft 373kts
30-Sep-19 14:24 34.405604 -110.092956 235 28720ft 390kts
30-Sep-19 14:25 34.350104 -110.208636 239 26842ft 405kts
30-Sep-19 14:26 34.296991 -110.326907 238 24889ft 375kts
30-Sep-19 14:27 34.248706 -110.432976 238 23147ft 356kts
30-Sep-19 14:28 34.201641 -110.535994 238 21448ft 343kts
30-Sep-19 14:29 34.151286 -110.629407 219 19831ft 316kts
30-Sep-19 14:30 34.076528 -110.681330 210 18434ft 316kts
30-Sep-19 14:31 33.998227 -110.734067 210 16947ft 318kts
30-Sep-19 14:33 33.922404 -110.784738 209 15533ft 307kts
30-Sep-19 14:34 33.848288 -110.835083 214 14147ft 304kts
30-Sep-19 14:35 33.793775 -110.911010 230 13227ft 297kts
30-Sep-19 14:36 33.742940 -110.989403 230 12387ft 296kts
30-Sep-19 14:37 33.693198 -111.065871 230 11572ft 281kts
30-Sep-19 14:38 33.645937 -111.138359 230 10789ft 274kts
30-Sep-19 14:39 33.600087 -111.212559 232 9999ft 280kts
30-Sep-19 14:40 33.553887 -111.289177 232 9186ft 285kts
30-Sep-19 14:41 33.507880 -111.366434 230 8159ft 276kts
30-Sep-19 14:42 33.452012 -111.416365 212 7580ft 229kts
30-Sep-19 14:43 33.399810 -111.459703 224 7159ft 237kts
30-Sep-19 14:44 33.359438 -111.519510 231 5837ft 218kts
30-Sep-19 14:45 33.327757 -111.580402 255 4032ft 210kts
30-Sep-19 14:46 33.318732 -111.648117 260 3601ft 185kts
30-Sep-19 14:47 33.310503 -111.702326 257 2815ft 162kts
30-Sep-19 14:48 33.300980 -111.752923 255 2343ft 149kts
30-Sep-19 14:49 33.283520 -111.793091 228 1623ft 132kts
30-Sep-19 14:50 33.266878 -111.816027 228 1246ft 21kts
30-Sep-19 14:51 33.268025 -111.815707 49 1246ft 24kts
30-Sep-19 14:52 33.271770 -111.813610 43 1246ft 13kts
30-Sep-19 14:52 33.272060 -111.812915 88 1246ft 0kts
30-Sep-19 14:54 33.272060 -111.812915 88 1246ft 0kts
30-Sep-19 14:54 33.272060 -111.812915 88 1246ft 0kts
30-Sep-19 14:55 33.272060 -111.812915 88 1246ft 0kts
30-Sep-19 14:57 33.272060 -111.812915 88 1246ft 0kts
30-Sep-19 14:57 33.272060 -111.812915 88 1246ft 0kts
30-Sep-19 14:58 33.272060 -111.812915 88 1246ft 0kts
30-Sep-19 15:00 33.272060 -111.812915 88 1246ft 0kts
30-Sep-19 15:00 33.272060 -111.812915 88 1246ft 0kts
30-Sep-19 15:01 33.272060 -111.812915 88 1246ft 0kts
30-Sep-19 15:02 33.272060 -111.812915 88 1246ft 0kts
30-Sep-19 15:03 33.272060 -111.812915 88 1246ft 0kts

Navigation Log

Ident Type
Flight plan parsing failed, navigation log unavailable